Wichelen, Belgium
Current Conditions -  °F | °C
As of 4:50 PM on Saturday 25 Oct 2014 (Local Time) from EBAW Reporting Station
Scattered Clouds Scattered Clouds  
Wind Chill: 57°   Ceiling: Unl
Heat Index: 57°   Visibility: 6mi
Dew Point: 43°   Wind: 8mph
Humidity: 59%   Direction: 270°W
Pressure: 30.12"   Gusts: NA
Location:  51.01°N, 3.98°E
Report Text: EBAW 251450Z 27007KT 240V310 9999 SCT035 14/06 Q1020 NOSIG
Loading
Personal Weather Stations






























Interactive Weather Map
Tropical Storm Tracking
New forecast layout! Learn more

10-Day Weather Forecast

Advertisements
Track Severe Weather on mobile